createdAt,value
2022-10-04T00:01:51.592Z,16.31
2022-10-04T00:04:24.664Z,16.45
2022-10-04T00:06:53.806Z,17.22
2022-10-04T00:09:25.823Z,16.93
2022-10-04T00:11:57.210Z,17.21
2022-10-04T00:14:30.871Z,16.95
2022-10-04T00:17:01.736Z,17.30
2022-10-04T00:19:47.365Z,16.21
2022-10-04T00:22:18.883Z,16.52
2022-10-04T00:25:18.697Z,16.89
2022-10-04T00:28:21.403Z,16.71
2022-10-04T00:31:05.661Z,17.06
2022-10-04T00:33:37.627Z,17.24
2022-10-04T00:36:33.675Z,16.98
2022-10-04T00:39:20.223Z,16.71
2022-10-04T00:41:57.225Z,16.84
2022-10-04T00:44:30.261Z,16.72
2022-10-04T00:46:59.365Z,16.83
2022-10-04T00:49:31.127Z,16.71
2022-10-04T00:52:04.246Z,16.90
2022-10-04T00:54:36.580Z,16.60
2022-10-04T00:57:09.033Z,16.85
2022-10-04T00:59:40.496Z,16.33
2022-10-04T01:02:16.776Z,16.56
2022-10-04T01:04:49.530Z,16.69
2022-10-04T01:07:24.008Z,16.31
2022-10-04T01:09:56.118Z,16.09
2022-10-04T01:12:40.849Z,16.22
2022-10-04T01:15:14.987Z,16.94
2022-10-04T01:18:09.315Z,16.55
2022-10-04T01:20:41.134Z,17.06
2022-10-04T01:23:12.174Z,16.44
2022-10-04T01:25:46.694Z,17.27
2022-10-04T01:28:17.808Z,17.28
2022-10-04T01:30:48.676Z,17.08
2022-10-04T01:33:19.361Z,16.53
2022-10-04T01:35:49.588Z,16.81
2022-10-04T01:38:20.164Z,16.94
2022-10-04T01:40:52.746Z,17.12
2022-10-04T01:43:25.150Z,17.08
2022-10-04T01:45:58.475Z,17.14
2022-10-04T01:48:32.515Z,16.86
2022-10-04T01:51:05.519Z,16.82
2022-10-04T01:53:38.894Z,16.46
2022-10-04T01:56:12.239Z,16.34
2022-10-04T01:58:43.973Z,16.81
2022-10-04T02:01:16.250Z,17.11
2022-10-04T02:03:52.592Z,17.17
2022-10-04T02:06:24.418Z,17.02
2022-10-04T02:08:57.789Z,17.04
2022-10-04T02:11:30.525Z,16.77
2022-10-04T02:14:01.740Z,16.93
2022-10-04T02:16:33.390Z,17.18
2022-10-04T02:19:04.347Z,16.80
2022-10-04T02:21:36.621Z,17.11
2022-10-04T02:24:08.718Z,16.98
2022-10-04T02:26:39.527Z,16.65
2022-10-04T02:29:10.450Z,17.04
2022-10-04T02:32:01.697Z,17.36
2022-10-04T02:34:32.300Z,17.28
2022-10-04T02:37:04.876Z,17.14
2022-10-04T02:39:38.488Z,16.63
2022-10-04T02:42:14.358Z,16.38
2022-10-04T02:44:47.514Z,16.34
2022-10-04T02:47:20.713Z,16.71
2022-10-04T02:49:52.976Z,16.84
2022-10-04T02:52:25.023Z,17.20
2022-10-04T02:55:01.645Z,16.67
2022-10-04T02:57:34.090Z,16.58
2022-10-04T03:00:15.057Z,16.91
2022-10-04T03:03:05.771Z,17.08
2022-10-04T03:05:36.592Z,17.10
2022-10-04T03:08:07.672Z,17.00
2022-10-04T03:10:38.161Z,15.43
2022-10-04T03:13:09.556Z,15.87
2022-10-04T03:15:40.408Z,16.23
2022-10-04T03:18:11.538Z,16.59
2022-10-04T03:20:42.668Z,16.87
2022-10-04T03:23:14.762Z,16.47
2022-10-04T03:25:48.808Z,16.73
2022-10-04T03:28:20.005Z,16.31
2022-10-04T03:30:51.214Z,16.79
2022-10-04T03:33:23.668Z,16.49
2022-10-04T03:35:56.042Z,17.12
2022-10-04T03:38:27.544Z,16.92
2022-10-04T03:40:59.389Z,16.85
2022-10-04T03:43:32.134Z,16.43
2022-10-04T03:46:03.747Z,16.68
2022-10-04T03:48:36.776Z,16.41
2022-10-04T03:51:08.861Z,16.47
2022-10-04T03:53:43.506Z,16.06
2022-10-04T03:56:17.165Z,16.65
2022-10-04T03:58:48.566Z,16.50
2022-10-04T04:01:36.303Z,15.61
2022-10-04T04:04:13.070Z,16.41
2022-10-04T04:06:47.443Z,16.63
2022-10-04T04:09:23.083Z,16.59
2022-10-04T04:11:55.601Z,16.71
2022-10-04T04:14:27.426Z,16.65
2022-10-04T04:17:17.784Z,16.92
2022-10-04T04:19:48.753Z,16.77
2022-10-04T04:22:19.378Z,16.76
2022-10-04T04:24:50.936Z,16.97
2022-10-04T04:27:24.842Z,16.70
2022-10-04T04:30:00.830Z,16.29
2022-10-04T04:32:34.299Z,16.85
2022-10-04T04:35:08.866Z,16.57
2022-10-04T04:37:39.985Z,16.83
2022-10-04T04:40:19.808Z,16.53
2022-10-04T04:42:50.951Z,17.07
2022-10-04T04:45:23.406Z,15.35
2022-10-04T04:47:56.455Z,15.32
2022-10-04T04:50:28.118Z,15.56
2022-10-04T04:53:01.860Z,16.16
2022-10-04T04:55:56.481Z,16.12
2022-10-04T04:58:27.244Z,16.59
2022-10-04T05:01:00.372Z,16.97
2022-10-04T05:03:31.554Z,15.88
2022-10-04T05:06:05.367Z,15.91
2022-10-04T05:08:41.280Z,16.19
2022-10-04T05:11:16.257Z,16.53
2022-10-04T05:13:48.177Z,16.99
2022-10-04T05:16:21.338Z,17.09
2022-10-04T05:18:55.942Z,15.55
2022-10-04T05:21:28.954Z,15.60
2022-10-04T05:24:00.782Z,16.58
2022-10-04T05:26:32.294Z,16.61
2022-10-04T05:29:04.217Z,16.99
2022-10-04T05:31:37.867Z,16.52
2022-10-04T05:34:19.205Z,16.75
2022-10-04T05:36:53.501Z,16.97
2022-10-04T05:39:26.543Z,16.78
2022-10-04T05:42:01.982Z,16.88
2022-10-04T05:44:36.554Z,16.76
2022-10-04T05:47:08.975Z,15.91
2022-10-04T05:49:45.267Z,15.88
2022-10-04T05:52:18.373Z,16.16
2022-10-04T05:54:48.760Z,16.92
2022-10-04T05:57:27.619Z,16.96
2022-10-04T06:00:10.871Z,15.75
2022-10-04T06:02:52.205Z,16.12
2022-10-04T06:05:28.888Z,16.67
2022-10-04T06:08:02.926Z,17.02
2022-10-04T06:10:31.552Z,16.06
2022-10-04T06:13:05.591Z,16.24
2022-10-04T06:15:45.175Z,16.75
2022-10-04T06:18:32.734Z,15.35
2022-10-04T06:21:22.945Z,15.49
2022-10-04T06:23:58.389Z,16.30
2022-10-04T06:26:31.229Z,16.68
2022-10-04T06:29:04.129Z,16.04
2022-10-04T06:31:57.045Z,15.22
2022-10-04T06:34:36.953Z,16.37
2022-10-04T06:37:25.175Z,16.35
2022-10-04T06:40:03.583Z,16.68
2022-10-04T06:42:43.416Z,15.18
2022-10-04T06:45:29.814Z,16.06
2022-10-04T06:48:07.436Z,16.75
2022-10-04T06:50:41.744Z,15.71
2022-10-04T06:53:19.030Z,15.45
2022-10-04T06:56:07.692Z,16.06
2022-10-04T06:58:53.433Z,16.27
2022-10-04T07:01:29.212Z,15.72
2022-10-04T07:04:02.932Z,16.05
2022-10-04T07:06:37.659Z,16.35
2022-10-04T07:09:09.110Z,16.95
2022-10-04T07:11:46.199Z,15.65
2022-10-04T07:14:18.958Z,15.73
2022-10-04T07:16:51.755Z,15.81
2022-10-04T07:19:29.242Z,16.41
2022-10-04T07:22:05.671Z,16.44
2022-10-04T07:24:47.418Z,15.64
2022-10-04T07:27:20.089Z,16.54
2022-10-04T07:29:55.753Z,16.89
2022-10-04T07:32:29.018Z,15.74
2022-10-04T07:35:03.338Z,15.83
2022-10-04T07:37:37.776Z,15.81
2022-10-04T07:40:11.224Z,16.33
2022-10-04T07:42:48.739Z,16.67
2022-10-04T07:45:24.137Z,15.46
2022-10-04T07:48:05.674Z,16.53
2022-10-04T07:50:39.173Z,16.19
2022-10-04T07:53:11.131Z,15.42
2022-10-04T07:55:46.906Z,16.59
2022-10-04T07:58:22.475Z,16.32
2022-10-04T08:00:56.131Z,15.21
2022-10-04T08:03:36.988Z,15.87
2022-10-04T08:06:14.393Z,16.22
2022-10-04T08:08:52.601Z,17.07
2022-10-04T08:11:28.403Z,16.36
2022-10-04T08:14:03.072Z,15.49
2022-10-04T08:16:38.087Z,15.95
2022-10-04T08:19:17.693Z,17.56
2022-10-04T08:21:53.821Z,16.11
2022-10-04T08:24:28.747Z,15.32
2022-10-04T08:27:04.464Z,16.15
2022-10-04T08:29:48.860Z,16.57
2022-10-04T08:32:38.827Z,15.79
2022-10-04T08:35:28.010Z,15.95
2022-10-04T08:38:08.151Z,16.72
2022-10-04T08:40:51.523Z,16.48
2022-10-04T08:43:20.829Z,15.48
2022-10-04T08:46:19.671Z,16.09
2022-10-04T08:49:12.502Z,16.41
2022-10-04T08:52:03.328Z,17.15
2022-10-04T08:55:01.698Z,16.11
2022-10-04T08:57:55.785Z,15.61
2022-10-04T09:00:29.166Z,16.22
2022-10-04T09:03:26.715Z,16.77
2022-10-04T09:06:00.044Z,15.52
2022-10-04T09:09:02.929Z,16.12
2022-10-04T09:11:57.208Z,16.67
2022-10-04T09:14:46.069Z,15.48
2022-10-04T09:17:24.245Z,16.35
2022-10-04T09:20:09.105Z,15.77
2022-10-04T09:22:50.334Z,15.80
2022-10-04T09:25:49.104Z,16.85
2022-10-04T09:28:24.738Z,15.98
2022-10-04T09:31:03.163Z,16.23
2022-10-04T09:33:47.622Z,15.24
2022-10-04T09:36:28.802Z,15.42
2022-10-04T09:39:29.064Z,17.13
2022-10-04T09:42:13.195Z,16.10
2022-10-04T09:44:54.776Z,15.14
2022-10-04T09:47:38.111Z,15.89
2022-10-04T09:50:32.166Z,16.93
2022-10-04T09:53:07.069Z,15.94
2022-10-04T09:55:44.501Z,15.97
2022-10-04T09:58:29.752Z,16.73
2022-10-04T10:01:07.722Z,15.59
2022-10-04T10:04:06.093Z,16.07
2022-10-04T10:06:50.268Z,16.91
2022-10-04T10:09:49.977Z,16.06
2022-10-04T10:12:41.525Z,15.25
2022-10-04T10:15:17.373Z,15.96
2022-10-04T10:17:51.607Z,16.69
2022-10-04T10:20:42.132Z,16.75
2022-10-04T10:23:23.675Z,15.85
2022-10-04T10:26:17.020Z,15.44
2022-10-04T10:29:04.297Z,16.79
2022-10-04T10:31:47.945Z,16.49
2022-10-04T10:34:29.006Z,15.67
2022-10-04T10:37:16.398Z,16.45
2022-10-04T10:40:03.414Z,16.32
2022-10-04T10:42:47.397Z,15.54
2022-10-04T10:45:27.913Z,16.68
2022-10-04T10:48:02.129Z,15.69
2022-10-04T10:51:00.048Z,15.67
2022-10-04T10:53:59.339Z,17.02
2022-10-04T10:56:47.048Z,16.55
2022-10-04T10:59:48.108Z,15.57
2022-10-04T11:02:48.625Z,15.54
2022-10-04T11:05:49.039Z,16.80
2022-10-04T11:08:30.681Z,15.86
2022-10-04T11:11:05.874Z,15.22
2022-10-04T11:13:50.387Z,14.99
2022-10-04T11:16:31.598Z,16.39
2022-10-04T11:19:16.151Z,15.63
2022-10-04T11:22:07.366Z,15.32
2022-10-04T11:24:50.692Z,16.78
2022-10-04T11:27:19.656Z,16.85
2022-10-04T11:30:04.437Z,15.94
2022-10-04T11:32:52.275Z,15.42
2022-10-04T11:35:46.603Z,15.02
2022-10-04T11:38:25.503Z,14.69
2022-10-04T11:41:04.049Z,14.48
2022-10-04T11:43:42.885Z,14.85
2022-10-04T11:46:22.423Z,16.41
2022-10-04T11:49:03.315Z,15.85
2022-10-04T11:51:45.525Z,15.25
2022-10-04T11:54:27.683Z,14.86
2022-10-04T11:57:11.928Z,14.65
2022-10-04T11:59:48.134Z,14.54
2022-10-04T12:02:35.719Z,14.52
2022-10-04T12:05:23.539Z,14.55
2022-10-04T12:08:03.111Z,14.57
2022-10-04T12:10:36.663Z,14.57
2022-10-04T12:13:30.234Z,14.54
2022-10-04T12:16:19.076Z,14.56
2022-10-04T12:19:00.276Z,14.51
2022-10-04T12:21:50.966Z,14.45
2022-10-04T12:24:28.120Z,14.41
2022-10-04T12:27:25.109Z,14.36
2022-10-04T12:30:08.910Z,14.49
2022-10-04T12:32:42.233Z,16.03
2022-10-04T12:35:24.760Z,16.27
2022-10-04T12:38:14.012Z,15.70
2022-10-04T12:40:48.754Z,15.19
2022-10-04T12:43:23.046Z,15.43
2022-10-04T12:45:58.304Z,17.27
2022-10-04T12:48:33.355Z,17.52
2022-10-04T12:51:09.238Z,16.56
2022-10-04T12:53:45.563Z,15.92
2022-10-04T12:56:23.275Z,15.56
2022-10-04T12:59:03.039Z,15.74
2022-10-04T13:01:37.865Z,16.48
2022-10-04T13:04:20.519Z,17.27
2022-10-04T13:06:56.024Z,17.18
2022-10-04T13:09:30.263Z,16.76
2022-10-04T13:12:04.764Z,16.57
2022-10-04T13:14:41.559Z,16.51
2022-10-04T13:17:30.644Z,16.22
2022-10-04T13:20:13.717Z,15.85
2022-10-04T13:22:56.927Z,15.61
2022-10-04T13:25:45.944Z,15.99
2022-10-04T13:28:23.232Z,16.73
2022-10-04T13:30:58.940Z,17.22
2022-10-04T13:33:31.916Z,17.94
2022-10-04T13:36:07.199Z,18.77
2022-10-04T13:38:50.944Z,19.58
2022-10-04T13:41:26.906Z,19.76
2022-10-04T13:44:18.000Z,19.19
2022-10-04T13:46:59.812Z,18.45
2022-10-04T13:49:38.548Z,17.74
2022-10-04T13:52:31.904Z,17.00
2022-10-04T13:55:31.002Z,16.41
2022-10-04T13:58:10.600Z,16.03
2022-10-04T14:00:50.714Z,16.27
2022-10-04T14:03:43.147Z,17.11
2022-10-04T14:06:27.367Z,18.05
2022-10-04T14:09:09.693Z,18.82
2022-10-04T14:11:55.079Z,19.20
2022-10-04T14:14:35.124Z,19.85
2022-10-04T14:17:22.973Z,20.40
2022-10-04T14:20:07.305Z,20.29
2022-10-04T14:23:00.775Z,19.87
2022-10-04T14:25:49.812Z,19.79
2022-10-04T14:28:38.672Z,19.76
2022-10-04T14:31:22.067Z,19.72
2022-10-04T14:34:06.481Z,19.42
2022-10-04T14:36:51.217Z,19.26
2022-10-04T14:39:40.985Z,19.50
2022-10-04T14:42:19.991Z,19.75
2022-10-04T14:45:05.643Z,20.12
2022-10-04T14:47:50.580Z,20.59
2022-10-04T14:50:26.190Z,21.01
2022-10-04T14:53:06.310Z,21.03
2022-10-04T14:55:50.813Z,20.47
2022-10-04T14:58:26.504Z,19.75
2022-10-04T15:01:07.653Z,19.57
2022-10-04T15:03:42.407Z,19.65
2022-10-04T15:06:23.883Z,19.80
2022-10-04T15:09:08.528Z,19.89
2022-10-04T15:11:41.615Z,19.87
2022-10-04T15:14:35.869Z,19.82
2022-10-04T15:17:08.697Z,19.85
2022-10-04T15:19:54.011Z,19.89
2022-10-04T15:22:27.784Z,19.86
2022-10-04T15:24:59.744Z,19.77
2022-10-04T15:27:51.828Z,19.73
2022-10-04T15:30:36.010Z,19.56
2022-10-04T15:33:18.322Z,19.43
2022-10-04T15:36:09.791Z,19.27
2022-10-04T15:38:45.835Z,18.95
2022-10-04T15:41:19.107Z,18.53
2022-10-04T15:44:12.256Z,17.98
2022-10-04T15:46:41.514Z,17.37
2022-10-04T15:49:31.413Z,16.88
2022-10-04T15:52:10.774Z,16.30
2022-10-04T15:55:11.559Z,15.79
2022-10-04T15:57:54.379Z,15.32
2022-10-04T16:00:27.120Z,14.94
2022-10-04T16:03:00.290Z,14.64
2022-10-04T16:05:39.660Z,14.38
2022-10-04T16:08:42.112Z,14.16
2022-10-04T16:11:25.329Z,13.95
2022-10-04T16:14:16.136Z,13.79
2022-10-04T16:17:03.911Z,14.02
2022-10-04T16:19:49.853Z,15.56
2022-10-04T16:22:28.378Z,16.43
2022-10-04T16:25:00.638Z,15.80
2022-10-04T16:27:54.150Z,15.05
2022-10-04T16:30:29.269Z,14.42
2022-10-04T16:33:06.455Z,14.05
2022-10-04T16:35:39.392Z,15.02
2022-10-04T16:38:16.541Z,16.21
2022-10-04T16:41:09.568Z,15.78
2022-10-04T16:43:48.953Z,14.73
2022-10-04T16:46:27.203Z,14.36
2022-10-04T16:48:59.208Z,15.45
2022-10-04T16:51:39.249Z,16.35
2022-10-04T16:54:18.799Z,15.57
2022-10-04T16:57:06.901Z,14.50
2022-10-04T16:59:48.069Z,14.19
2022-10-04T17:02:32.426Z,15.43
2022-10-04T17:05:18.117Z,16.37
2022-10-04T17:07:59.431Z,16.92
2022-10-04T17:10:35.801Z,15.89
2022-10-04T17:13:16.249Z,14.79
2022-10-04T17:15:49.902Z,15.10
2022-10-04T17:18:26.383Z,15.87
2022-10-04T17:20:58.862Z,16.48
2022-10-04T17:23:46.079Z,16.85
2022-10-04T17:26:22.625Z,17.05
2022-10-04T17:28:57.696Z,15.83
2022-10-04T17:31:35.128Z,14.58
2022-10-04T17:34:10.768Z,14.20
2022-10-04T17:36:43.994Z,15.17
2022-10-04T17:39:22.696Z,15.85
2022-10-04T17:42:01.926Z,16.32
2022-10-04T17:44:40.175Z,16.70
2022-10-04T17:47:15.195Z,16.53
2022-10-04T17:50:10.237Z,15.36
2022-10-04T17:53:02.387Z,14.20
2022-10-04T17:55:44.250Z,13.92
2022-10-04T17:58:16.333Z,15.05
2022-10-04T18:00:57.031Z,15.92
2022-10-04T18:03:32.973Z,16.42
2022-10-04T18:06:12.524Z,16.15
2022-10-04T18:08:47.952Z,14.68
2022-10-04T18:11:22.281Z,14.29
2022-10-04T18:14:03.309Z,14.96
2022-10-04T18:16:43.623Z,15.48
2022-10-04T18:19:27.765Z,15.82
2022-10-04T18:22:06.597Z,16.25
2022-10-04T18:24:40.934Z,15.81
2022-10-04T18:27:22.849Z,14.61
2022-10-04T18:30:15.272Z,14.70
2022-10-04T18:32:52.790Z,15.55
2022-10-04T18:35:30.284Z,15.77
2022-10-04T18:38:21.401Z,16.19
2022-10-04T18:40:58.922Z,15.46
2022-10-04T18:43:32.914Z,14.11
2022-10-04T18:46:11.985Z,14.56
2022-10-04T18:49:03.937Z,15.10
2022-10-04T18:51:48.816Z,15.54
2022-10-04T18:57:17.101Z,16.04
2022-10-04T19:00:09.927Z,16.03
2022-10-04T19:02:45.316Z,14.80
2022-10-04T19:05:24.414Z,13.80
2022-10-04T19:08:07.919Z,14.26
2022-10-04T19:10:46.366Z,15.06
2022-10-04T19:13:33.950Z,15.36
2022-10-04T19:16:16.130Z,15.53
2022-10-04T19:18:54.515Z,15.71
2022-10-04T19:21:27.540Z,15.92
2022-10-04T19:24:13.281Z,15.71
2022-10-04T19:26:46.130Z,14.46
2022-10-04T19:29:22.991Z,13.67
2022-10-04T19:31:57.005Z,14.30
2022-10-04T19:34:33.967Z,15.05
2022-10-04T19:37:09.263Z,15.54
2022-10-04T19:39:43.720Z,15.81
2022-10-04T19:42:15.748Z,15.73
2022-10-04T19:45:03.305Z,14.64
2022-10-04T19:47:41.543Z,13.49
2022-10-04T19:50:18.846Z,13.07
2022-10-04T19:52:54.625Z,13.92
2022-10-04T19:55:29.980Z,14.65
2022-10-04T19:58:10.098Z,15.28
2022-10-04T20:00:41.198Z,15.05
2022-10-04T20:03:13.557Z,13.68
2022-10-04T20:05:52.689Z,12.90
2022-10-04T20:08:37.015Z,13.67
2022-10-04T20:11:16.128Z,14.52
2022-10-04T20:13:46.977Z,14.95
2022-10-04T20:16:38.570Z,15.51
2022-10-04T20:19:19.709Z,14.86
2022-10-04T20:21:51.312Z,13.19
2022-10-04T20:24:41.915Z,12.69
2022-10-04T20:27:37.979Z,13.65
2022-10-04T20:30:18.811Z,14.32
2022-10-04T20:32:56.475Z,14.73
2022-10-04T20:35:43.990Z,14.95
2022-10-04T20:38:32.281Z,15.05
2022-10-04T20:41:03.233Z,15.21
2022-10-04T20:43:54.679Z,15.43
2022-10-04T20:46:25.737Z,15.62
2022-10-04T20:48:56.882Z,15.80
2022-10-04T20:51:30.279Z,15.64
2022-10-04T20:54:01.925Z,14.41
2022-10-04T20:56:33.445Z,13.20
2022-10-04T20:59:05.727Z,13.17
2022-10-04T21:01:46.003Z,14.03
2022-10-04T21:04:18.771Z,14.52
2022-10-04T21:06:55.628Z,14.79
2022-10-04T21:09:27.585Z,15.02
2022-10-04T21:11:58.415Z,15.11
2022-10-04T21:14:30.008Z,14.99
2022-10-04T21:17:02.873Z,15.11
2022-10-04T21:19:54.069Z,15.20
2022-10-04T21:22:34.541Z,13.88
2022-10-04T21:25:07.553Z,13.72
2022-10-04T21:27:38.966Z,14.24
2022-10-04T21:30:15.231Z,14.48
2022-10-04T21:32:45.549Z,14.86
2022-10-04T21:35:17.206Z,14.82
2022-10-04T21:37:47.692Z,14.90
2022-10-04T21:40:18.742Z,14.90
2022-10-04T21:42:49.097Z,15.00
2022-10-04T21:45:19.945Z,15.10
2022-10-04T21:47:50.266Z,15.16
2022-10-04T21:50:21.705Z,14.15
2022-10-04T21:52:52.025Z,13.18
2022-10-04T21:55:22.871Z,13.58
2022-10-04T21:57:53.181Z,14.12
2022-10-04T22:00:24.604Z,14.51
2022-10-04T22:02:54.893Z,14.69
2022-10-04T22:05:25.658Z,14.70
2022-10-04T22:07:55.932Z,14.79
2022-10-04T22:10:26.783Z,14.96
2022-10-04T22:12:57.463Z,15.16
2022-10-04T22:15:29.312Z,14.94
2022-10-04T22:17:59.825Z,13.73
2022-10-04T22:20:30.840Z,13.10
2022-10-04T22:23:15.389Z,13.67
2022-10-04T22:25:46.615Z,14.15
2022-10-04T22:28:20.478Z,14.44
2022-10-04T22:30:52.468Z,14.59
2022-10-04T22:33:28.485Z,14.68
2022-10-04T22:36:00.636Z,14.89
2022-10-04T22:38:31.548Z,15.00
2022-10-04T22:41:02.951Z,15.02
2022-10-04T22:43:33.336Z,14.85
2022-10-04T22:46:04.425Z,13.60
2022-10-04T22:48:35.097Z,12.44
2022-10-04T22:51:06.254Z,12.45
2022-10-04T22:53:36.958Z,13.37
2022-10-04T22:56:08.346Z,14.03
2022-10-04T22:58:38.906Z,14.44
2022-10-04T23:01:14.211Z,14.63
2022-10-04T23:03:46.262Z,14.73
2022-10-04T23:06:17.487Z,14.79
2022-10-04T23:08:47.957Z,14.58
2022-10-04T23:11:18.650Z,13.40
2022-10-04T23:13:48.969Z,12.80
2022-10-04T23:16:21.050Z,13.29
2022-10-04T23:18:51.847Z,13.64
2022-10-04T23:21:24.047Z,13.88
2022-10-04T23:23:54.777Z,14.05
2022-10-04T23:26:28.356Z,14.03
2022-10-04T23:28:56.975Z,14.15
2022-10-04T23:31:28.309Z,14.27
2022-10-04T23:33:59.258Z,14.45
2022-10-04T23:36:29.989Z,14.51
2022-10-04T23:39:02.711Z,14.39
2022-10-04T23:41:33.137Z,14.38
2022-10-04T23:44:04.349Z,14.60
2022-10-04T23:46:35.054Z,14.75
2022-10-04T23:49:06.133Z,14.50
2022-10-04T23:51:37.037Z,13.29
2022-10-04T23:54:11.767Z,12.16
2022-10-04T23:56:43.222Z,11.69
2022-10-04T23:59:17.345Z,12.57
